sensor_id;sensor_type;location;lat;lon;timestamp;P1;durP1;ratioP1;P2;durP2;ratioP2
25627;SDS011;40915;50.826;4.356;2022-09-30T00:02:24;14.23;;;10.00;;
25627;SDS011;40915;50.826;4.356;2022-09-30T00:04:49;12.27;;;9.87;;
25627;SDS011;40915;50.826;4.356;2022-09-30T00:07:15;12.10;;;10.03;;
25627;SDS011;40915;50.826;4.356;2022-09-30T00:09:41;12.70;;;9.90;;
25627;SDS011;40915;50.826;4.356;2022-09-30T00:12:06;15.20;;;10.17;;
25627;SDS011;40915;50.826;4.356;2022-09-30T00:14:32;12.43;;;10.00;;
25627;SDS011;40915;50.826;4.356;2022-09-30T00:16:58;13.73;;;10.07;;
25627;SDS011;40915;50.826;4.356;2022-09-30T00:19:23;12.90;;;10.10;;
25627;SDS011;40915;50.826;4.356;2022-09-30T00:21:49;12.50;;;10.00;;
25627;SDS011;40915;50.826;4.356;2022-09-30T00:24:15;14.50;;;10.87;;
25627;SDS011;40915;50.826;4.356;2022-09-30T00:26:40;13.87;;;10.30;;
25627;SDS011;40915;50.826;4.356;2022-09-30T00:29:06;11.73;;;10.03;;
25627;SDS011;40915;50.826;4.356;2022-09-30T00:31:32;11.80;;;9.77;;
25627;SDS011;40915;50.826;4.356;2022-09-30T00:33:59;14.40;;;10.07;;
25627;SDS011;40915;50.826;4.356;2022-09-30T00:36:36;14.27;;;10.20;;
25627;SDS011;40915;50.826;4.356;2022-09-30T00:39:11;13.30;;;10.13;;
25627;SDS011;40915;50.826;4.356;2022-09-30T00:41:40;11.50;;;10.20;;
25627;SDS011;40915;50.826;4.356;2022-09-30T00:50:14;12.83;;;9.90;;
25627;SDS011;40915;50.826;4.356;2022-09-30T00:52:41;13.47;;;10.27;;
25627;SDS011;40915;50.826;4.356;2022-09-30T00:55:12;16.50;;;10.30;;
25627;SDS011;40915;50.826;4.356;2022-09-30T00:57:50;13.57;;;10.70;;
25627;SDS011;40915;50.826;4.356;2022-09-30T01:00:16;14.00;;;10.50;;
25627;SDS011;40915;50.826;4.356;2022-09-30T01:02:42;12.60;;;9.73;;
25627;SDS011;40915;50.826;4.356;2022-09-30T01:05:11;12.33;;;9.83;;
25627;SDS011;40915;50.826;4.356;2022-09-30T01:07:37;12.73;;;10.57;;
25627;SDS011;40915;50.826;4.356;2022-09-30T01:10:03;14.33;;;10.30;;
25627;SDS011;40915;50.826;4.356;2022-09-30T01:12:29;11.47;;;9.90;;
25627;SDS011;40915;50.826;4.356;2022-09-30T01:14:55;14.03;;;9.60;;
25627;SDS011;40915;50.826;4.356;2022-09-30T01:33:46;13.63;;;10.20;;
25627;SDS011;40915;50.826;4.356;2022-09-30T01:44:59;12.57;;;11.20;;
25627;SDS011;40915;50.826;4.356;2022-09-30T01:47:31;14.37;;;10.87;;
25627;SDS011;40915;50.826;4.356;2022-09-30T01:52:48;11.70;;;10.40;;
25627;SDS011;40915;50.826;4.356;2022-09-30T01:58:11;14.23;;;11.53;;
25627;SDS011;40915;50.826;4.356;2022-09-30T02:00:43;15.37;;;11.90;;
25627;SDS011;40915;50.826;4.356;2022-09-30T02:03:14;13.77;;;11.37;;
25627;SDS011;40915;50.826;4.356;2022-09-30T02:06:10;14.00;;;11.90;;
25627;SDS011;40915;50.826;4.356;2022-09-30T02:08:43;12.53;;;11.13;;
25627;SDS011;40915;50.826;4.356;2022-09-30T02:11:34;15.53;;;12.13;;
25627;SDS011;40915;50.826;4.356;2022-09-30T02:17:05;15.37;;;12.10;;
25627;SDS011;40915;50.826;4.356;2022-09-30T02:19:44;16.73;;;11.87;;
25627;SDS011;40915;50.826;4.356;2022-09-30T02:22:38;18.37;;;13.90;;
25627;SDS011;40915;50.826;4.356;2022-09-30T02:25:11;16.47;;;12.93;;
25627;SDS011;40915;50.826;4.356;2022-09-30T02:27:46;16.40;;;13.03;;
25627;SDS011;40915;50.826;4.356;2022-09-30T02:30:15;15.93;;;12.87;;
25627;SDS011;40915;50.826;4.356;2022-09-30T02:32:43;15.67;;;13.17;;
25627;SDS011;40915;50.826;4.356;2022-09-30T02:35:36;17.63;;;14.17;;
25627;SDS011;40915;50.826;4.356;2022-09-30T02:38:24;21.63;;;14.47;;
25627;SDS011;40915;50.826;4.356;2022-09-30T02:40:55;18.17;;;13.97;;
25627;SDS011;40915;50.826;4.356;2022-09-30T02:43:30;17.43;;;13.97;;
25627;SDS011;40915;50.826;4.356;2022-09-30T02:48:47;18.70;;;14.10;;
25627;SDS011;40915;50.826;4.356;2022-09-30T02:51:37;17.37;;;14.50;;
25627;SDS011;40915;50.826;4.356;2022-09-30T02:59:52;19.03;;;15.00;;
25627;SDS011;40915;50.826;4.356;2022-09-30T03:02:18;18.10;;;14.87;;
25627;SDS011;40915;50.826;4.356;2022-09-30T03:04:45;17.23;;;15.27;;
25627;SDS011;40915;50.826;4.356;2022-09-30T03:07:13;21.40;;;14.67;;
25627;SDS011;40915;50.826;4.356;2022-09-30T03:09:39;18.73;;;15.23;;
25627;SDS011;40915;50.826;4.356;2022-09-30T03:12:10;19.47;;;14.73;;
25627;SDS011;40915;50.826;4.356;2022-09-30T03:20:57;19.57;;;14.87;;
25627;SDS011;40915;50.826;4.356;2022-09-30T03:26:35;20.70;;;15.83;;
25627;SDS011;40915;50.826;4.356;2022-09-30T03:34:22;25.90;;;17.63;;
25627;SDS011;40915;50.826;4.356;2022-09-30T03:36:57;22.50;;;17.53;;
25627;SDS011;40915;50.826;4.356;2022-09-30T03:42:19;22.90;;;18.13;;
25627;SDS011;40915;50.826;4.356;2022-09-30T03:45:00;21.50;;;16.60;;
25627;SDS011;40915;50.826;4.356;2022-09-30T03:47:33;19.03;;;15.57;;
25627;SDS011;40915;50.826;4.356;2022-09-30T03:50:05;19.63;;;14.57;;
25627;SDS011;40915;50.826;4.356;2022-09-30T03:52:33;20.57;;;14.40;;
25627;SDS011;40915;50.826;4.356;2022-09-30T03:55:01;17.13;;;13.17;;
25627;SDS011;40915;50.826;4.356;2022-09-30T03:57:29;17.07;;;12.93;;
25627;SDS011;40915;50.826;4.356;2022-09-30T03:59:58;20.77;;;16.10;;
25627;SDS011;40915;50.826;4.356;2022-09-30T04:02:24;26.47;;;18.63;;
25627;SDS011;40915;50.826;4.356;2022-09-30T04:04:50;23.33;;;19.00;;
25627;SDS011;40915;50.826;4.356;2022-09-30T04:07:16;23.37;;;18.23;;
25627;SDS011;40915;50.826;4.356;2022-09-30T04:09:42;25.00;;;19.63;;
25627;SDS011;40915;50.826;4.356;2022-09-30T04:12:08;27.97;;;21.07;;
25627;SDS011;40915;50.826;4.356;2022-09-30T04:14:33;28.37;;;20.40;;
25627;SDS011;40915;50.826;4.356;2022-09-30T04:16:59;25.77;;;21.60;;
25627;SDS011;40915;50.826;4.356;2022-09-30T04:19:26;29.07;;;20.97;;
25627;SDS011;40915;50.826;4.356;2022-09-30T04:21:52;25.43;;;20.50;;
25627;SDS011;40915;50.826;4.356;2022-09-30T04:24:19;29.73;;;20.87;;
25627;SDS011;40915;50.826;4.356;2022-09-30T04:26:46;24.30;;;19.53;;
25627;SDS011;40915;50.826;4.356;2022-09-30T04:29:12;23.30;;;18.80;;
25627;SDS011;40915;50.826;4.356;2022-09-30T04:31:37;26.00;;;19.63;;
25627;SDS011;40915;50.826;4.356;2022-09-30T04:34:03;27.23;;;19.30;;
25627;SDS011;40915;50.826;4.356;2022-09-30T04:36:28;25.63;;;20.13;;
25627;SDS011;40915;50.826;4.356;2022-09-30T04:38:54;28.50;;;19.30;;
25627;SDS011;40915;50.826;4.356;2022-09-30T04:41:20;27.93;;;20.17;;
25627;SDS011;40915;50.826;4.356;2022-09-30T04:43:46;26.17;;;18.80;;
25627;SDS011;40915;50.826;4.356;2022-09-30T04:46:16;24.70;;;19.80;;
25627;SDS011;40915;50.826;4.356;2022-09-30T04:48:43;25.23;;;19.43;;
25627;SDS011;40915;50.826;4.356;2022-09-30T04:51:11;27.63;;;19.60;;
25627;SDS011;40915;50.826;4.356;2022-09-30T04:53:38;26.50;;;20.17;;
25627;SDS011;40915;50.826;4.356;2022-09-30T04:56:04;25.67;;;19.57;;
25627;SDS011;40915;50.826;4.356;2022-09-30T04:58:30;28.80;;;20.63;;
25627;SDS011;40915;50.826;4.356;2022-09-30T05:01:00;26.60;;;19.40;;
25627;SDS011;40915;50.826;4.356;2022-09-30T05:03:29;25.60;;;19.97;;
25627;SDS011;40915;50.826;4.356;2022-09-30T05:05:55;26.50;;;21.43;;
25627;SDS011;40915;50.826;4.356;2022-09-30T05:08:20;28.57;;;21.07;;
25627;SDS011;40915;50.826;4.356;2022-09-30T05:10:53;28.57;;;20.17;;
25627;SDS011;40915;50.826;4.356;2022-09-30T05:13:21;29.50;;;22.67;;
25627;SDS011;40915;50.826;4.356;2022-09-30T05:15:47;28.83;;;20.83;;
25627;SDS011;40915;50.826;4.356;2022-09-30T05:18:14;27.33;;;20.53;;
25627;SDS011;40915;50.826;4.356;2022-09-30T05:20:40;27.77;;;21.53;;
25627;SDS011;40915;50.826;4.356;2022-09-30T05:23:06;26.77;;;21.17;;
25627;SDS011;40915;50.826;4.356;2022-09-30T05:25:33;30.07;;;21.97;;
25627;SDS011;40915;50.826;4.356;2022-09-30T05:27:59;29.10;;;21.70;;
25627;SDS011;40915;50.826;4.356;2022-09-30T05:30:25;25.67;;;21.03;;
25627;SDS011;40915;50.826;4.356;2022-09-30T05:32:52;28.10;;;22.13;;
25627;SDS011;40915;50.826;4.356;2022-09-30T05:35:17;27.97;;;21.27;;
25627;SDS011;40915;50.826;4.356;2022-09-30T05:37:43;31.13;;;22.07;;
25627;SDS011;40915;50.826;4.356;2022-09-30T05:40:08;28.97;;;21.73;;
25627;SDS011;40915;50.826;4.356;2022-09-30T05:42:34;31.80;;;22.33;;
25627;SDS011;40915;50.826;4.356;2022-09-30T05:45:01;39.87;;;22.87;;
25627;SDS011;40915;50.826;4.356;2022-09-30T05:47:28;27.03;;;21.27;;
25627;SDS011;40915;50.826;4.356;2022-09-30T05:49:53;30.30;;;22.17;;
25627;SDS011;40915;50.826;4.356;2022-09-30T05:52:19;29.27;;;21.07;;
25627;SDS011;40915;50.826;4.356;2022-09-30T05:54:46;33.80;;;21.87;;
25627;SDS011;40915;50.826;4.356;2022-09-30T05:57:12;29.13;;;22.80;;
25627;SDS011;40915;50.826;4.356;2022-09-30T05:59:37;36.90;;;21.97;;
25627;SDS011;40915;50.826;4.356;2022-09-30T06:02:03;29.77;;;20.77;;
25627;SDS011;40915;50.826;4.356;2022-09-30T06:04:29;28.07;;;20.70;;
25627;SDS011;40915;50.826;4.356;2022-09-30T06:06:54;28.27;;;21.17;;
25627;SDS011;40915;50.826;4.356;2022-09-30T06:09:20;26.17;;;20.30;;
25627;SDS011;40915;50.826;4.356;2022-09-30T06:11:46;32.63;;;22.30;;
25627;SDS011;40915;50.826;4.356;2022-09-30T06:14:12;30.23;;;22.20;;
25627;SDS011;40915;50.826;4.356;2022-09-30T06:16:37;29.97;;;21.47;;
25627;SDS011;40915;50.826;4.356;2022-09-30T06:19:04;26.97;;;19.77;;
25627;SDS011;40915;50.826;4.356;2022-09-30T06:21:30;26.97;;;20.23;;
25627;SDS011;40915;50.826;4.356;2022-09-30T06:23:56;30.27;;;21.83;;
25627;SDS011;40915;50.826;4.356;2022-09-30T06:26:22;25.60;;;20.47;;
25627;SDS011;40915;50.826;4.356;2022-09-30T06:28:48;27.10;;;20.67;;
25627;SDS011;40915;50.826;4.356;2022-09-30T06:31:14;27.87;;;21.27;;
25627;SDS011;40915;50.826;4.356;2022-09-30T06:33:39;26.53;;;20.67;;
25627;SDS011;40915;50.826;4.356;2022-09-30T06:36:06;27.33;;;21.03;;
25627;SDS011;40915;50.826;4.356;2022-09-30T06:38:32;32.73;;;20.80;;
25627;SDS011;40915;50.826;4.356;2022-09-30T06:41:01;31.40;;;21.90;;
25627;SDS011;40915;50.826;4.356;2022-09-30T06:43:27;26.30;;;19.27;;
25627;SDS011;40915;50.826;4.356;2022-09-30T06:45:53;29.73;;;19.87;;
25627;SDS011;40915;50.826;4.356;2022-09-30T06:48:19;28.37;;;20.30;;
25627;SDS011;40915;50.826;4.356;2022-09-30T06:50:47;25.63;;;19.90;;
25627;SDS011;40915;50.826;4.356;2022-09-30T06:53:12;26.70;;;17.60;;
25627;SDS011;40915;50.826;4.356;2022-09-30T06:55:38;24.97;;;16.77;;
25627;SDS011;40915;50.826;4.356;2022-09-30T06:58:08;24.57;;;16.53;;
25627;SDS011;40915;50.826;4.356;2022-09-30T07:00:38;19.03;;;14.33;;
25627;SDS011;40915;50.826;4.356;2022-09-30T07:03:04;20.80;;;14.00;;
25627;SDS011;40915;50.826;4.356;2022-09-30T07:05:33;18.65;;;13.82;;
25627;SDS011;40915;50.826;4.356;2022-09-30T07:08:02;20.92;;;13.60;;
25627;SDS011;40915;50.826;4.356;2022-09-30T07:10:28;18.70;;;12.35;;
25627;SDS011;40915;50.826;4.356;2022-09-30T07:12:53;17.88;;;12.48;;
25627;SDS011;40915;50.826;4.356;2022-09-30T07:15:19;15.38;;;11.63;;
25627;SDS011;40915;50.826;4.356;2022-09-30T07:17:50;16.20;;;11.63;;
25627;SDS011;40915;50.826;4.356;2022-09-30T07:20:17;18.83;;;11.52;;
25627;SDS011;40915;50.826;4.356;2022-09-30T07:22:43;16.40;;;11.02;;
25627;SDS011;40915;50.826;4.356;2022-09-30T07:25:09;13.50;;;10.57;;
25627;SDS011;40915;50.826;4.356;2022-09-30T07:27:35;19.13;;;10.88;;
25627;SDS011;40915;50.826;4.356;2022-09-30T07:30:01;13.73;;;10.73;;
25627;SDS011;40915;50.826;4.356;2022-09-30T07:32:27;17.10;;;11.50;;
25627;SDS011;40915;50.826;4.356;2022-09-30T07:34:53;13.82;;;11.02;;
25627;SDS011;40915;50.826;4.356;2022-09-30T07:37:18;14.60;;;11.02;;
25627;SDS011;40915;50.826;4.356;2022-09-30T07:39:45;17.45;;;10.60;;
25627;SDS011;40915;50.826;4.356;2022-09-30T07:42:13;19.48;;;12.23;;
25627;SDS011;40915;50.826;4.356;2022-09-30T07:44:40;15.00;;;11.50;;
25627;SDS011;40915;50.826;4.356;2022-09-30T07:47:09;15.50;;;11.90;;
25627;SDS011;40915;50.826;4.356;2022-09-30T07:49:36;18.20;;;12.13;;
25627;SDS011;40915;50.826;4.356;2022-09-30T07:52:02;18.13;;;11.93;;
25627;SDS011;40915;50.826;4.356;2022-09-30T07:54:30;14.40;;;10.95;;
25627;SDS011;40915;50.826;4.356;2022-09-30T07:56:57;16.83;;;10.75;;
25627;SDS011;40915;50.826;4.356;2022-09-30T07:59:24;15.95;;;11.23;;
25627;SDS011;40915;50.826;4.356;2022-09-30T08:01:51;17.20;;;10.82;;
25627;SDS011;40915;50.826;4.356;2022-09-30T08:04:17;16.00;;;10.40;;
25627;SDS011;40915;50.826;4.356;2022-09-30T08:06:46;16.02;;;11.02;;
25627;SDS011;40915;50.826;4.356;2022-09-30T08:09:15;15.73;;;10.45;;
25627;SDS011;40915;50.826;4.356;2022-09-30T08:11:42;14.77;;;11.07;;
25627;SDS011;40915;50.826;4.356;2022-09-30T08:14:15;13.93;;;10.50;;
25627;SDS011;40915;50.826;4.356;2022-09-30T08:16:42;17.88;;;11.73;;
25627;SDS011;40915;50.826;4.356;2022-09-30T08:19:08;17.25;;;10.70;;
25627;SDS011;40915;50.826;4.356;2022-09-30T08:21:40;13.93;;;10.20;;
25627;SDS011;40915;50.826;4.356;2022-09-30T08:24:06;12.73;;;9.60;;
25627;SDS011;40915;50.826;4.356;2022-09-30T08:26:31;16.58;;;11.07;;
25627;SDS011;40915;50.826;4.356;2022-09-30T08:28:57;13.27;;;9.90;;
25627;SDS011;40915;50.826;4.356;2022-09-30T08:31:23;15.85;;;9.65;;
25627;SDS011;40915;50.826;4.356;2022-09-30T08:33:49;13.85;;;8.80;;
25627;SDS011;40915;50.826;4.356;2022-09-30T08:36:16;17.10;;;10.18;;
25627;SDS011;40915;50.826;4.356;2022-09-30T08:38:46;13.23;;;8.80;;
25627;SDS011;40915;50.826;4.356;2022-09-30T08:51:42;12.25;;;7.80;;
25627;SDS011;40915;50.826;4.356;2022-09-30T08:54:13;10.90;;;6.55;;
25627;SDS011;40915;50.826;4.356;2022-09-30T08:56:41;14.43;;;7.32;;
25627;SDS011;40915;50.826;4.356;2022-09-30T08:59:51;10.23;;;7.05;;
25627;SDS011;40915;50.826;4.356;2022-09-30T09:02:21;9.15;;;7.05;;
25627;SDS011;40915;50.826;4.356;2022-09-30T09:04:51;12.75;;;7.38;;
25627;SDS011;40915;50.826;4.356;2022-09-30T09:15:23;11.70;;;7.78;;
25627;SDS011;40915;50.826;4.356;2022-09-30T09:21:21;9.75;;;6.78;;
25627;SDS011;40915;50.826;4.356;2022-09-30T09:23:56;9.95;;;6.50;;
25627;SDS011;40915;50.826;4.356;2022-09-30T09:26:26;10.85;;;7.03;;
25627;SDS011;40915;50.826;4.356;2022-09-30T09:31:38;9.05;;;5.93;;
25627;SDS011;40915;50.826;4.356;2022-09-30T09:34:10;9.15;;;6.88;;
25627;SDS011;40915;50.826;4.356;2022-09-30T09:36:46;12.20;;;7.90;;
25627;SDS011;40915;50.826;4.356;2022-09-30T09:45:02;6.93;;;4.80;;
25627;SDS011;40915;50.826;4.356;2022-09-30T09:47:36;6.07;;;4.50;;
25627;SDS011;40915;50.826;4.356;2022-09-30T09:50:02;8.18;;;4.60;;
25627;SDS011;40915;50.826;4.356;2022-09-30T09:54:57;6.07;;;3.90;;
25627;SDS011;40915;50.826;4.356;2022-09-30T09:57:25;7.82;;;4.50;;
25627;SDS011;40915;50.826;4.356;2022-09-30T09:59:59;6.47;;;4.18;;
25627;SDS011;40915;50.826;4.356;2022-09-30T10:02:44;5.70;;;4.22;;
25627;SDS011;40915;50.826;4.356;2022-09-30T10:05:27;13.90;;;5.93;;
25627;SDS011;40915;50.826;4.356;2022-09-30T10:10:49;8.52;;;4.80;;
25627;SDS011;40915;50.826;4.356;2022-09-30T10:13:20;8.88;;;4.35;;
25627;SDS011;40915;50.826;4.356;2022-09-30T10:15:53;5.18;;;3.55;;
25627;SDS011;40915;50.826;4.356;2022-09-30T10:18:22;9.20;;;4.43;;
25627;SDS011;40915;50.826;4.356;2022-09-30T10:20:56;11.98;;;4.45;;
25627;SDS011;40915;50.826;4.356;2022-09-30T10:23:33;7.78;;;4.60;;
25627;SDS011;40915;50.826;4.356;2022-09-30T10:26:08;8.27;;;4.32;;
25627;SDS011;40915;50.826;4.356;2022-09-30T10:28:56;7.22;;;4.65;;
25627;SDS011;40915;50.826;4.356;2022-09-30T10:36:43;5.50;;;4.43;;
25627;SDS011;40915;50.826;4.356;2022-09-30T10:39:18;7.28;;;5.28;;
25627;SDS011;40915;50.826;4.356;2022-09-30T10:41:45;10.05;;;5.80;;
25627;SDS011;40915;50.826;4.356;2022-09-30T10:44:13;10.35;;;4.57;;
25627;SDS011;40915;50.826;4.356;2022-09-30T10:46:44;8.55;;;4.70;;
25627;SDS011;40915;50.826;4.356;2022-09-30T10:49:25;8.55;;;4.20;;
25627;SDS011;40915;50.826;4.356;2022-09-30T10:51:54;7.78;;;4.57;;
25627;SDS011;40915;50.826;4.356;2022-09-30T10:57:30;10.52;;;6.07;;
25627;SDS011;40915;50.826;4.356;2022-09-30T10:59:59;8.60;;;4.95;;
25627;SDS011;40915;50.826;4.356;2022-09-30T11:02:37;7.45;;;4.50;;
25627;SDS011;40915;50.826;4.356;2022-09-30T11:05:29;8.82;;;5.07;;
25627;SDS011;40915;50.826;4.356;2022-09-30T11:08:15;9.90;;;4.78;;
25627;SDS011;40915;50.826;4.356;2022-09-30T11:11:03;12.05;;;5.00;;
25627;SDS011;40915;50.826;4.356;2022-09-30T11:13:48;6.55;;;4.50;;
25627;SDS011;40915;50.826;4.356;2022-09-30T11:16:32;9.27;;;4.30;;
25627;SDS011;40915;50.826;4.356;2022-09-30T11:19:19;7.05;;;4.20;;
25627;SDS011;40915;50.826;4.356;2022-09-30T11:24:28;6.97;;;3.95;;
25627;SDS011;40915;50.826;4.356;2022-09-30T11:41:31;4.95;;;4.00;;
25627;SDS011;40915;50.826;4.356;2022-09-30T11:44:17;7.03;;;5.18;;
25627;SDS011;40915;50.826;4.356;2022-09-30T11:55:01;8.13;;;5.05;;
25627;SDS011;40915;50.826;4.356;2022-09-30T11:58:04;7.60;;;5.05;;
25627;SDS011;40915;50.826;4.356;2022-09-30T12:00:30;5.47;;;4.55;;
25627;SDS011;40915;50.826;4.356;2022-09-30T12:03:14;9.27;;;4.20;;
25627;SDS011;40915;50.826;4.356;2022-09-30T12:06:03;7.40;;;4.10;;
25627;SDS011;40915;50.826;4.356;2022-09-30T12:08:46;9.40;;;5.82;;
25627;SDS011;40915;50.826;4.356;2022-09-30T12:11:19;8.93;;;4.38;;
25627;SDS011;40915;50.826;4.356;2022-09-30T12:13:53;10.57;;;4.72;;
25627;SDS011;40915;50.826;4.356;2022-09-30T12:16:28;4.50;;;3.92;;
25627;SDS011;40915;50.826;4.356;2022-09-30T12:19:19;7.43;;;4.15;;
25627;SDS011;40915;50.826;4.356;2022-09-30T12:21:55;6.35;;;4.10;;
25627;SDS011;40915;50.826;4.356;2022-09-30T12:27:01;7.60;;;4.32;;
25627;SDS011;40915;50.826;4.356;2022-09-30T12:29:37;8.40;;;4.38;;
25627;SDS011;40915;50.826;4.356;2022-09-30T12:32:32;6.75;;;4.07;;
25627;SDS011;40915;50.826;4.356;2022-09-30T12:35:24;9.57;;;4.05;;
25627;SDS011;40915;50.826;4.356;2022-09-30T12:43:27;9.32;;;5.03;;
25627;SDS011;40915;50.826;4.356;2022-09-30T12:48:51;5.43;;;4.20;;
25627;SDS011;40915;50.826;4.356;2022-09-30T12:53:50;8.98;;;3.90;;
25627;SDS011;40915;50.826;4.356;2022-09-30T12:56:22;7.18;;;4.22;;
25627;SDS011;40915;50.826;4.356;2022-09-30T12:58:51;7.30;;;4.10;;
25627;SDS011;40915;50.826;4.356;2022-09-30T13:01:21;6.00;;;3.97;;
25627;SDS011;40915;50.826;4.356;2022-09-30T13:06:21;6.72;;;4.50;;
25627;SDS011;40915;50.826;4.356;2022-09-30T13:11:41;5.13;;;3.03;;
25627;SDS011;40915;50.826;4.356;2022-09-30T13:14:17;6.18;;;4.00;;
25627;SDS011;40915;50.826;4.356;2022-09-30T13:19:37;7.07;;;3.85;;
25627;SDS011;40915;50.826;4.356;2022-09-30T13:32:46;8.77;;;5.18;;
25627;SDS011;40915;50.826;4.356;2022-09-30T13:35:35;6.63;;;4.63;;
25627;SDS011;40915;50.826;4.356;2022-09-30T13:40:44;11.07;;;4.57;;
25627;SDS011;40915;50.826;4.356;2022-09-30T13:52:32;6.78;;;3.20;;
25627;SDS011;40915;50.826;4.356;2022-09-30T13:55:10;6.47;;;3.00;;
25627;SDS011;40915;50.826;4.356;2022-09-30T14:06:06;5.03;;;3.03;;
25627;SDS011;40915;50.826;4.356;2022-09-30T14:08:50;4.55;;;2.40;;
25627;SDS011;40915;50.826;4.356;2022-09-30T14:11:29;5.20;;;3.10;;
25627;SDS011;40915;50.826;4.356;2022-09-30T14:17:16;6.20;;;2.97;;
25627;SDS011;40915;50.826;4.356;2022-09-30T14:22:50;3.88;;;2.90;;
25627;SDS011;40915;50.826;4.356;2022-09-30T14:25:17;4.57;;;2.42;;
25627;SDS011;40915;50.826;4.356;2022-09-30T14:28:04;3.33;;;2.50;;
25627;SDS011;40915;50.826;4.356;2022-09-30T14:30:40;4.38;;;2.58;;
25627;SDS011;40915;50.826;4.356;2022-09-30T14:33:27;5.75;;;2.90;;
25627;SDS011;40915;50.826;4.356;2022-09-30T14:35:55;5.18;;;2.40;;
25627;SDS011;40915;50.826;4.356;2022-09-30T14:38:26;3.92;;;1.92;;
25627;SDS011;40915;50.826;4.356;2022-09-30T14:40:55;4.38;;;2.17;;
25627;SDS011;40915;50.826;4.356;2022-09-30T14:43:24;7.15;;;2.45;;
25627;SDS011;40915;50.826;4.356;2022-09-30T14:45:59;3.75;;;2.40;;
25627;SDS011;40915;50.826;4.356;2022-09-30T14:48:33;5.43;;;2.22;;
25627;SDS011;40915;50.826;4.356;2022-09-30T14:51:06;3.20;;;1.80;;
25627;SDS011;40915;50.826;4.356;2022-09-30T14:53:39;4.35;;;2.38;;
25627;SDS011;40915;50.826;4.356;2022-09-30T14:56:40;5.30;;;2.42;;
25627;SDS011;40915;50.826;4.356;2022-09-30T14:59:13;6.68;;;2.13;;
25627;SDS011;40915;50.826;4.356;2022-09-30T15:01:41;5.53;;;2.50;;
25627;SDS011;40915;50.826;4.356;2022-09-30T15:04:18;5.72;;;2.03;;
25627;SDS011;40915;50.826;4.356;2022-09-30T15:06:50;7.25;;;2.30;;
25627;SDS011;40915;50.826;4.356;2022-09-30T15:09:27;5.47;;;2.53;;
25627;SDS011;40915;50.826;4.356;2022-09-30T15:12:01;4.82;;;2.17;;
25627;SDS011;40915;50.826;4.356;2022-09-30T15:14:50;2.78;;;2.42;;
25627;SDS011;40915;50.826;4.356;2022-09-30T15:17:19;3.60;;;2.35;;
25627;SDS011;40915;50.826;4.356;2022-09-30T15:19:46;5.15;;;2.63;;
25627;SDS011;40915;50.826;4.356;2022-09-30T15:22:14;4.55;;;1.95;;
25627;SDS011;40915;50.826;4.356;2022-09-30T15:24:41;5.43;;;2.20;;
25627;SDS011;40915;50.826;4.356;2022-09-30T15:27:29;3.78;;;2.40;;
25627;SDS011;40915;50.826;4.356;2022-09-30T15:29:56;4.72;;;2.42;;
25627;SDS011;40915;50.826;4.356;2022-09-30T15:32:42;2.83;;;2.13;;
25627;SDS011;40915;50.826;4.356;2022-09-30T15:37:37;4.13;;;2.60;;
25627;SDS011;40915;50.826;4.356;2022-09-30T15:40:02;3.85;;;2.50;;
25627;SDS011;40915;50.826;4.356;2022-09-30T15:42:56;4.57;;;2.63;;
25627;SDS011;40915;50.826;4.356;2022-09-30T15:47:55;7.45;;;3.13;;
25627;SDS011;40915;50.826;4.356;2022-09-30T15:53:17;4.30;;;3.05;;
25627;SDS011;40915;50.826;4.356;2022-09-30T15:55:49;4.25;;;2.30;;
25627;SDS011;40915;50.826;4.356;2022-09-30T16:03:51;7.25;;;2.70;;
25627;SDS011;40915;50.826;4.356;2022-09-30T16:06:21;3.38;;;2.05;;
25627;SDS011;40915;50.826;4.356;2022-09-30T16:08:51;3.25;;;2.25;;
25627;SDS011;40915;50.826;4.356;2022-09-30T16:12:08;8.73;;;3.03;;
25627;SDS011;40915;50.826;4.356;2022-09-30T16:14:27;7.65;;;2.65;;
25627;SDS011;40915;50.826;4.356;2022-09-30T16:16:56;6.45;;;2.70;;
25627;SDS011;40915;50.826;4.356;2022-09-30T16:19:24;8.10;;;2.70;;
25627;SDS011;40915;50.826;4.356;2022-09-30T16:21:52;3.55;;;1.83;;
25627;SDS011;40915;50.826;4.356;2022-09-30T16:26:51;6.55;;;2.60;;
25627;SDS011;40915;50.826;4.356;2022-09-30T16:29:19;7.00;;;2.80;;
25627;SDS011;40915;50.826;4.356;2022-09-30T16:31:47;3.35;;;2.05;;
25627;SDS011;40915;50.826;4.356;2022-09-30T16:34:21;4.93;;;2.13;;
25627;SDS011;40915;50.826;4.356;2022-09-30T16:36:48;4.45;;;1.90;;
25627;SDS011;40915;50.826;4.356;2022-09-30T16:39:15;5.45;;;2.10;;
25627;SDS011;40915;50.826;4.356;2022-09-30T16:41:41;4.28;;;2.10;;
25627;SDS011;40915;50.826;4.356;2022-09-30T16:44:08;5.78;;;2.00;;
25627;SDS011;40915;50.826;4.356;2022-09-30T16:46:34;2.78;;;1.58;;
25627;SDS011;40915;50.826;4.356;2022-09-30T16:51:41;3.63;;;1.80;;
25627;SDS011;40915;50.826;4.356;2022-09-30T16:54:08;5.20;;;1.65;;
25627;SDS011;40915;50.826;4.356;2022-09-30T16:56:34;10.48;;;2.15;;
25627;SDS011;40915;50.826;4.356;2022-09-30T16:58:59;4.13;;;1.80;;
25627;SDS011;40915;50.826;4.356;2022-09-30T17:01:25;3.88;;;1.85;;
25627;SDS011;40915;50.826;4.356;2022-09-30T17:03:51;3.78;;;1.73;;
25627;SDS011;40915;50.826;4.356;2022-09-30T17:06:19;2.47;;;1.80;;
25627;SDS011;40915;50.826;4.356;2022-09-30T17:08:50;3.85;;;2.05;;
25627;SDS011;40915;50.826;4.356;2022-09-30T17:11:17;4.60;;;2.20;;
25627;SDS011;40915;50.826;4.356;2022-09-30T17:13:43;6.63;;;2.20;;
25627;SDS011;40915;50.826;4.356;2022-09-30T17:16:10;6.53;;;4.50;;
25627;SDS011;40915;50.826;4.356;2022-09-30T17:18:36;2.60;;;2.00;;
25627;SDS011;40915;50.826;4.356;2022-09-30T17:21:02;3.78;;;2.00;;
25627;SDS011;40915;50.826;4.356;2022-09-30T17:23:28;3.22;;;1.85;;
25627;SDS011;40915;50.826;4.356;2022-09-30T17:25:53;4.88;;;3.40;;
25627;SDS011;40915;50.826;4.356;2022-09-30T17:28:19;5.35;;;3.15;;
25627;SDS011;40915;50.826;4.356;2022-09-30T17:30:46;3.75;;;1.95;;
25627;SDS011;40915;50.826;4.356;2022-09-30T17:33:13;6.07;;;2.30;;
25627;SDS011;40915;50.826;4.356;2022-09-30T17:35:39;3.95;;;1.90;;
25627;SDS011;40915;50.826;4.356;2022-09-30T17:38:09;2.85;;;2.10;;
25627;SDS011;40915;50.826;4.356;2022-09-30T17:40:36;3.50;;;1.90;;
25627;SDS011;40915;50.826;4.356;2022-09-30T17:43:20;4.75;;;1.92;;
25627;SDS011;40915;50.826;4.356;2022-09-30T17:45:48;4.72;;;2.63;;
25627;SDS011;40915;50.826;4.356;2022-09-30T17:48:19;5.18;;;2.15;;
25627;SDS011;40915;50.826;4.356;2022-09-30T17:50:46;3.83;;;1.83;;
25627;SDS011;40915;50.826;4.356;2022-09-30T17:53:13;6.57;;;2.78;;
25627;SDS011;40915;50.826;4.356;2022-09-30T17:55:42;3.17;;;2.10;;
25627;SDS011;40915;50.826;4.356;2022-09-30T17:58:11;5.18;;;2.05;;
25627;SDS011;40915;50.826;4.356;2022-09-30T18:00:37;5.55;;;2.53;;
25627;SDS011;40915;50.826;4.356;2022-09-30T18:03:03;3.90;;;2.60;;
25627;SDS011;40915;50.826;4.356;2022-09-30T18:05:29;4.65;;;2.78;;
25627;SDS011;40915;50.826;4.356;2022-09-30T18:07:57;3.78;;;2.50;;
25627;SDS011;40915;50.826;4.356;2022-09-30T18:10:23;4.75;;;2.38;;
25627;SDS011;40915;50.826;4.356;2022-09-30T18:12:49;4.68;;;2.72;;
25627;SDS011;40915;50.826;4.356;2022-09-30T18:15:18;5.57;;;3.35;;
25627;SDS011;40915;50.826;4.356;2022-09-30T18:17:44;6.40;;;2.95;;
25627;SDS011;40915;50.826;4.356;2022-09-30T18:20:11;7.13;;;2.50;;
25627;SDS011;40915;50.826;4.356;2022-09-30T18:22:37;4.40;;;2.58;;
25627;SDS011;40915;50.826;4.356;2022-09-30T18:25:03;7.43;;;5.22;;
25627;SDS011;40915;50.826;4.356;2022-09-30T18:27:49;7.95;;;4.10;;